createdAt,value
2023-12-29T00:01:19.469Z,110.37
2023-12-29T00:03:47.839Z,109.78
2023-12-29T00:06:17.485Z,109.82
2023-12-29T00:08:45.811Z,110.06
2023-12-29T00:11:19.419Z,109.69
2023-12-29T00:13:48.024Z,109.28
2023-12-29T00:16:17.209Z,109.36
2023-12-29T00:18:45.785Z,109.56
2023-12-29T00:21:14.480Z,109.34
2023-12-29T00:23:44.940Z,108.91
2023-12-29T00:26:13.472Z,108.94
2023-12-29T00:28:42.908Z,108.89
2023-12-29T00:31:11.294Z,109.10
2023-12-29T00:33:39.776Z,109.07
2023-12-29T00:36:08.424Z,109.04
2023-12-29T00:38:37.064Z,109.03
2023-12-29T00:41:08.138Z,108.79
2023-12-29T00:43:36.642Z,109.20
2023-12-29T00:46:05.364Z,108.90
2023-12-29T00:48:34.016Z,108.37
2023-12-29T00:51:03.853Z,108.50
2023-12-29T00:53:34.329Z,108.92
2023-12-29T00:56:02.813Z,108.67
2023-12-29T00:58:32.474Z,108.75
2023-12-29T01:01:00.930Z,108.94
2023-12-29T01:03:29.234Z,109.03
2023-12-29T01:05:57.868Z,108.77
2023-12-29T01:08:26.310Z,108.97
2023-12-29T01:10:54.537Z,109.04
2023-12-29T01:13:22.822Z,109.28
2023-12-29T01:15:52.582Z,108.95
2023-12-29T01:18:20.983Z,108.99
2023-12-29T01:20:49.301Z,109.07
2023-12-29T01:23:18.397Z,109.22
2023-12-29T01:25:46.686Z,109.13
2023-12-29T01:28:15.055Z,109.20
2023-12-29T01:30:44.502Z,109.23
2023-12-29T01:33:14.292Z,109.03
2023-12-29T01:35:42.791Z,108.98
2023-12-29T01:38:11.193Z,108.67
2023-12-29T01:40:45.889Z,108.79
2023-12-29T01:43:15.654Z,108.85
2023-12-29T01:45:52.508Z,109.08
2023-12-29T01:48:28.553Z,108.75
2023-12-29T01:50:58.485Z,108.43
2023-12-29T01:53:34.957Z,109.00
2023-12-29T01:56:11.543Z,108.85
2023-12-29T01:58:39.885Z,108.97
2023-12-29T02:01:10.045Z,108.82
2023-12-29T02:03:40.080Z,108.86
2023-12-29T02:06:11.291Z,108.72
2023-12-29T02:08:39.708Z,108.72
2023-12-29T02:11:08.052Z,109.03
2023-12-29T02:13:36.916Z,108.74
2023-12-29T02:16:11.514Z,108.89
2023-12-29T02:18:46.144Z,108.97
2023-12-29T02:21:15.404Z,109.01
2023-12-29T02:23:43.639Z,108.90
2023-12-29T02:26:17.911Z,108.98
2023-12-29T02:28:50.783Z,108.96
2023-12-29T02:31:25.281Z,108.89
2023-12-29T02:33:55.519Z,108.78
2023-12-29T02:36:25.854Z,108.82
2023-12-29T02:38:54.147Z,108.78
2023-12-29T02:41:23.836Z,108.76
2023-12-29T02:43:52.115Z,108.69
2023-12-29T02:46:20.467Z,108.80
2023-12-29T02:48:49.109Z,108.59
2023-12-29T02:51:17.496Z,108.51
2023-12-29T02:53:46.980Z,108.61
2023-12-29T02:56:15.298Z,108.64
2023-12-29T02:58:49.906Z,108.61
2023-12-29T03:01:18.385Z,108.70
2023-12-29T03:03:46.833Z,108.75
2023-12-29T03:06:15.110Z,108.49
2023-12-29T03:08:43.397Z,108.67
2023-12-29T03:11:12.172Z,108.58
2023-12-29T03:13:40.701Z,108.62
2023-12-29T03:16:10.426Z,108.69
2023-12-29T03:18:41.248Z,108.71
2023-12-29T03:21:09.836Z,108.65
2023-12-29T03:23:38.270Z,108.69
2023-12-29T03:26:06.764Z,108.75
2023-12-29T03:28:35.405Z,108.45
2023-12-29T03:31:03.829Z,108.67
2023-12-29T03:33:33.946Z,108.65
2023-12-29T03:36:02.302Z,108.66
2023-12-29T03:38:30.563Z,108.52
2023-12-29T03:40:58.807Z,108.59
2023-12-29T03:43:27.136Z,108.46
2023-12-29T03:45:56.712Z,108.40
2023-12-29T03:48:26.035Z,108.49
2023-12-29T03:50:55.747Z,108.52
2023-12-29T03:53:30.501Z,108.61
2023-12-29T03:55:58.787Z,108.38
2023-12-29T03:58:27.034Z,108.35
2023-12-29T04:00:55.472Z,108.48
2023-12-29T04:03:23.803Z,108.30
2023-12-29T04:05:52.048Z,108.50
2023-12-29T04:08:21.742Z,108.35
2023-12-29T04:10:50.136Z,108.33
2023-12-29T04:13:18.398Z,108.25
2023-12-29T04:15:46.717Z,108.37
2023-12-29T04:18:15.170Z,108.42
2023-12-29T04:20:43.463Z,108.26
2023-12-29T04:23:14.451Z,108.24
2023-12-29T04:25:44.262Z,108.23
2023-12-29T04:28:12.725Z,108.26
2023-12-29T04:30:41.192Z,108.30
2023-12-29T04:33:09.629Z,108.21
2023-12-29T04:35:38.070Z,108.30
2023-12-29T04:38:07.637Z,108.37
2023-12-29T04:40:36.706Z,108.33
2023-12-29T04:43:06.631Z,108.23
2023-12-29T04:45:34.938Z,108.46
2023-12-29T04:48:03.527Z,108.23
2023-12-29T04:50:31.989Z,108.52
2023-12-29T04:53:00.280Z,108.39
2023-12-29T04:55:28.586Z,108.20
2023-12-29T04:57:57.074Z,108.39
2023-12-29T05:00:26.808Z,108.41
2023-12-29T05:02:55.029Z,108.35
2023-12-29T05:05:23.301Z,108.57
2023-12-29T05:07:51.680Z,108.33
2023-12-29T05:10:20.011Z,108.26
2023-12-29T05:12:48.361Z,108.31
2023-12-29T05:15:16.746Z,108.34
2023-12-29T05:17:48.368Z,108.43
2023-12-29T05:20:16.749Z,108.36
2023-12-29T05:22:45.091Z,108.40
2023-12-29T05:25:13.410Z,108.09
2023-12-29T05:27:41.690Z,108.35
2023-12-29T05:30:10.745Z,108.35
2023-12-29T05:32:39.163Z,108.12
2023-12-29T05:35:12.574Z,107.91
2023-12-29T05:37:41.093Z,107.37
2023-12-29T05:40:10.515Z,107.15
2023-12-29T05:42:38.863Z,107.37
2023-12-29T05:45:07.690Z,107.21
2023-12-29T05:47:36.224Z,107.27
2023-12-29T05:50:04.896Z,107.07
2023-12-29T05:52:34.721Z,107.19
2023-12-29T05:55:03.197Z,107.13
2023-12-29T05:57:34.267Z,106.95
2023-12-29T06:00:06.971Z,107.04
2023-12-29T06:02:40.743Z,107.10
2023-12-29T06:05:09.783Z,106.76
2023-12-29T06:07:39.542Z,106.85
2023-12-29T06:10:09.476Z,106.88
2023-12-29T06:12:38.211Z,106.91
2023-12-29T06:15:07.310Z,106.78
2023-12-29T06:17:36.713Z,107.01
2023-12-29T06:20:07.429Z,106.72
2023-12-29T06:22:35.991Z,107.01
2023-12-29T06:25:06.332Z,106.77
2023-12-29T06:27:38.377Z,106.86
2023-12-29T06:30:07.969Z,106.82
2023-12-29T06:32:36.823Z,106.82
2023-12-29T06:35:06.114Z,106.74
2023-12-29T06:37:34.992Z,106.77
2023-12-29T06:40:03.590Z,106.84
2023-12-29T06:42:33.315Z,106.82
2023-12-29T06:45:01.750Z,106.74
2023-12-29T06:47:30.396Z,106.76
2023-12-29T06:49:58.418Z,106.72
2023-12-29T06:52:31.269Z,106.63
2023-12-29T06:54:59.684Z,106.75
2023-12-29T06:57:28.425Z,106.92
2023-12-29T06:59:58.438Z,106.75
2023-12-29T07:02:26.800Z,106.81
2023-12-29T07:04:57.908Z,106.88
2023-12-29T07:07:26.771Z,106.60
2023-12-29T07:09:55.176Z,106.88
2023-12-29T07:12:23.585Z,106.72
2023-12-29T07:14:53.645Z,106.74
2023-12-29T07:17:24.573Z,106.71
2023-12-29T07:19:53.044Z,106.64
2023-12-29T07:22:21.484Z,107.00
2023-12-29T07:24:49.969Z,106.84
2023-12-29T07:27:19.212Z,106.66
2023-12-29T07:29:47.603Z,106.76
2023-12-29T07:32:16.003Z,106.85
2023-12-29T07:34:46.705Z,106.71
2023-12-29T07:37:15.281Z,106.72
2023-12-29T07:39:43.627Z,106.77
2023-12-29T07:42:13.377Z,106.91
2023-12-29T07:44:44.757Z,106.79
2023-12-29T07:47:13.446Z,106.92
2023-12-29T07:49:48.145Z,106.82
2023-12-29T07:52:16.548Z,106.75
2023-12-29T07:54:44.872Z,106.78
2023-12-29T07:57:14.169Z,106.66
2023-12-29T07:59:42.785Z,106.82
2023-12-29T08:02:11.126Z,107.06
2023-12-29T08:04:39.717Z,107.56
2023-12-29T08:07:12.056Z,107.70
2023-12-29T08:09:40.468Z,108.19
2023-12-29T08:12:09.487Z,108.01
2023-12-29T08:14:37.701Z,108.06
2023-12-29T08:17:05.993Z,108.14
2023-12-29T08:19:34.444Z,107.97
2023-12-29T08:22:02.774Z,108.53
2023-12-29T08:24:33.144Z,109.05
2023-12-29T08:27:01.468Z,109.14
2023-12-29T08:29:29.709Z,109.11
2023-12-29T08:31:57.955Z,108.59
2023-12-29T08:34:28.525Z,109.25
2023-12-29T08:36:57.526Z,109.22
2023-12-29T08:39:26.470Z,108.73
2023-12-29T08:41:56.071Z,107.88
2023-12-29T08:44:24.502Z,108.04
2023-12-29T08:46:52.777Z,106.94
2023-12-29T08:49:21.263Z,106.03
2023-12-29T08:51:49.698Z,105.26
2023-12-29T08:54:18.034Z,105.20
2023-12-29T08:56:46.323Z,104.35
2023-12-29T08:59:15.990Z,104.59
2023-12-29T09:01:44.502Z,104.44
2023-12-29T09:04:13.176Z,104.86
2023-12-29T09:06:41.750Z,104.44
2023-12-29T09:09:13.768Z,104.73
2023-12-29T09:11:42.132Z,104.86
2023-12-29T09:14:10.564Z,104.61
2023-12-29T09:16:44.325Z,104.79
2023-12-29T09:19:22.702Z,105.02
2023-12-29T09:21:59.456Z,104.99
2023-12-29T09:24:27.725Z,105.14
2023-12-29T09:26:55.976Z,105.02
2023-12-29T09:29:24.396Z,105.08
2023-12-29T09:31:54.047Z,104.71
2023-12-29T09:34:22.566Z,105.11
2023-12-29T09:36:51.009Z,104.69
2023-12-29T09:39:19.258Z,104.80
2023-12-29T09:41:49.526Z,104.88
2023-12-29T09:44:22.184Z,104.98
2023-12-29T09:46:55.480Z,105.03
2023-12-29T09:49:24.175Z,104.91
2023-12-29T09:51:52.932Z,105.11
2023-12-29T09:54:21.636Z,105.02
2023-12-29T09:56:51.768Z,105.12
2023-12-29T09:59:21.470Z,105.49
2023-12-29T10:01:50.637Z,105.54
2023-12-29T10:04:20.440Z,105.12
2023-12-29T10:06:51.250Z,105.83
2023-12-29T10:09:22.386Z,105.38
2023-12-29T10:11:51.278Z,105.99
2023-12-29T10:14:27.507Z,105.69
2023-12-29T10:17:05.317Z,106.27
2023-12-29T10:19:41.924Z,105.92
2023-12-29T10:22:16.541Z,105.98
2023-12-29T10:24:47.883Z,105.98
2023-12-29T10:27:16.495Z,106.27
2023-12-29T10:29:44.816Z,106.14
2023-12-29T10:32:13.185Z,106.30
2023-12-29T10:34:43.138Z,106.14
2023-12-29T10:37:15.774Z,106.29
2023-12-29T10:39:57.962Z,105.90
2023-12-29T10:42:26.418Z,105.85
2023-12-29T10:45:07.905Z,105.76
2023-12-29T10:47:36.759Z,105.90
2023-12-29T10:50:07.608Z,105.89
2023-12-29T10:52:38.226Z,105.69
2023-12-29T10:55:08.741Z,105.72
2023-12-29T10:57:37.887Z,105.83
2023-12-29T11:00:09.112Z,105.72
2023-12-29T11:02:37.916Z,105.35
2023-12-29T11:05:09.631Z,105.77
2023-12-29T11:07:38.474Z,106.17
2023-12-29T11:10:10.078Z,106.28
2023-12-29T11:12:40.422Z,105.92
2023-12-29T11:15:11.425Z,105.57
2023-12-29T11:17:39.782Z,105.90
2023-12-29T11:20:10.249Z,106.23
2023-12-29T11:22:38.523Z,105.56
2023-12-29T11:25:09.026Z,105.47
2023-12-29T11:27:38.229Z,105.64
2023-12-29T11:30:09.303Z,105.37
2023-12-29T11:32:43.754Z,105.17
2023-12-29T11:35:19.615Z,105.13
2023-12-29T11:38:14.180Z,105.31
2023-12-29T11:40:46.835Z,105.27
2023-12-29T11:43:19.084Z,105.10
2023-12-29T11:45:47.734Z,104.94
2023-12-29T11:48:54.807Z,105.27
2023-12-29T11:51:38.253Z,105.05
2023-12-29T11:54:07.354Z,105.39
2023-12-29T11:56:41.615Z,105.09
2023-12-29T11:59:19.160Z,105.14
2023-12-29T12:01:50.055Z,105.25
2023-12-29T12:04:38.606Z,105.03
2023-12-29T12:07:09.629Z,105.16
2023-12-29T12:09:38.527Z,105.31
2023-12-29T12:12:07.972Z,105.43
2023-12-29T12:14:52.872Z,105.34
2023-12-29T12:17:34.582Z,105.85
2023-12-29T12:20:08.728Z,105.30
2023-12-29T12:22:39.864Z,105.29
2023-12-29T12:25:09.089Z,105.34
2023-12-29T12:27:40.781Z,105.47
2023-12-29T12:30:13.382Z,105.73
2023-12-29T12:32:44.751Z,105.67
2023-12-29T12:35:20.152Z,105.36
2023-12-29T12:37:50.492Z,105.85
2023-12-29T12:40:28.992Z,106.01
2023-12-29T12:42:57.880Z,105.27
2023-12-29T12:45:29.897Z,105.65
2023-12-29T12:48:04.069Z,105.88
2023-12-29T12:50:32.654Z,106.46
2023-12-29T12:53:04.696Z,106.08
2023-12-29T12:55:36.554Z,105.72
2023-12-29T12:58:06.450Z,105.79
2023-12-29T13:00:35.142Z,105.70
2023-12-29T13:03:04.010Z,106.19
2023-12-29T13:05:32.822Z,105.59
2023-12-29T13:08:04.356Z,105.67
2023-12-29T13:10:32.848Z,105.91
2023-12-29T13:13:01.493Z,105.90
2023-12-29T13:15:31.203Z,105.98
2023-12-29T13:18:02.956Z,106.15
2023-12-29T13:20:31.305Z,105.69
2023-12-29T13:22:59.988Z,105.79
2023-12-29T13:25:30.479Z,105.79
2023-12-29T13:27:59.536Z,105.74
2023-12-29T13:30:28.137Z,105.93
2023-12-29T13:32:56.673Z,106.04
2023-12-29T13:35:33.486Z,105.94
2023-12-29T13:38:09.190Z,105.82
2023-12-29T13:40:43.354Z,105.79
2023-12-29T13:43:14.170Z,105.89
2023-12-29T13:45:44.475Z,105.83
2023-12-29T13:48:14.316Z,106.17
2023-12-29T13:50:47.745Z,106.02
2023-12-29T13:53:19.728Z,106.05
2023-12-29T13:55:49.562Z,105.89
2023-12-29T13:58:19.423Z,105.98
2023-12-29T14:00:56.034Z,105.98
2023-12-29T14:03:29.254Z,106.10
2023-12-29T14:06:02.066Z,106.17
2023-12-29T14:08:35.638Z,106.14
2023-12-29T14:11:09.681Z,105.95
2023-12-29T14:13:43.224Z,106.05
2023-12-29T14:16:13.126Z,105.82
2023-12-29T14:18:55.658Z,105.98
2023-12-29T14:21:25.575Z,105.86
2023-12-29T14:24:07.908Z,105.93
2023-12-29T14:26:38.145Z,106.01
2023-12-29T14:29:07.979Z,105.95
2023-12-29T14:31:40.769Z,106.10
2023-12-29T14:34:10.229Z,106.04
2023-12-29T14:36:39.865Z,106.07
2023-12-29T14:39:08.756Z,105.95
2023-12-29T14:41:38.615Z,106.14
2023-12-29T14:44:07.020Z,105.78
2023-12-29T14:46:37.607Z,106.06
2023-12-29T14:49:06.775Z,106.22
2023-12-29T14:51:35.492Z,106.03
2023-12-29T14:54:05.283Z,105.96
2023-12-29T14:56:33.694Z,106.23
2023-12-29T14:59:05.668Z,106.37
2023-12-29T15:01:35.370Z,105.82
2023-12-29T15:04:03.932Z,106.17
2023-12-29T15:06:32.286Z,106.19
2023-12-29T15:09:00.607Z,106.23
2023-12-29T15:11:28.897Z,106.33
2023-12-29T15:13:57.171Z,106.13
2023-12-29T15:16:26.897Z,106.31
2023-12-29T15:18:55.262Z,106.07
2023-12-29T15:21:23.583Z,106.06
2023-12-29T15:23:52.140Z,105.95
2023-12-29T15:26:20.388Z,106.14
2023-12-29T15:28:48.618Z,106.11
2023-12-29T15:31:17.616Z,106.24
2023-12-29T15:33:47.612Z,106.03
2023-12-29T15:36:18.424Z,106.01
2023-12-29T15:38:46.799Z,106.00
2023-12-29T15:41:15.087Z,105.96
2023-12-29T15:43:43.447Z,106.37
2023-12-29T15:46:15.989Z,106.45
2023-12-29T15:48:44.785Z,107.17
2023-12-29T15:51:14.545Z,107.33
2023-12-29T15:53:42.942Z,108.28
2023-12-29T15:56:19.638Z,109.63
2023-12-29T15:58:48.195Z,110.86
2023-12-29T16:01:24.834Z,111.24
2023-12-29T16:03:53.520Z,110.81
2023-12-29T16:06:24.346Z,111.13
2023-12-29T16:08:54.768Z,111.26
2023-12-29T16:11:24.438Z,112.08
2023-12-29T16:13:52.777Z,112.39
2023-12-29T16:16:21.983Z,112.10
2023-12-29T16:18:50.410Z,111.16
2023-12-29T16:21:19.042Z,109.10
2023-12-29T16:23:48.688Z,108.02
2023-12-29T16:26:19.482Z,108.40
2023-12-29T16:28:49.434Z,108.45
2023-12-29T16:31:17.808Z,107.51
2023-12-29T16:33:46.269Z,106.80
2023-12-29T16:36:16.366Z,105.68
2023-12-29T16:38:50.641Z,106.29
2023-12-29T16:41:19.721Z,105.59
2023-12-29T16:43:48.067Z,105.78
2023-12-29T16:46:16.514Z,106.91
2023-12-29T16:48:44.981Z,106.48
2023-12-29T16:51:13.308Z,107.06
2023-12-29T16:53:41.556Z,107.84
2023-12-29T16:56:11.892Z,106.79
2023-12-29T16:58:43.534Z,106.07
2023-12-29T17:01:12.125Z,106.27
2023-12-29T17:03:40.890Z,105.09
2023-12-29T17:06:09.166Z,104.90
2023-12-29T17:08:37.586Z,105.31
2023-12-29T17:11:06.964Z,105.00
2023-12-29T17:13:36.946Z,104.82
2023-12-29T17:16:06.369Z,104.63
2023-12-29T17:18:34.881Z,104.34
2023-12-29T17:21:07.163Z,104.89
2023-12-29T17:23:36.260Z,104.21
2023-12-29T17:26:10.221Z,104.20
2023-12-29T17:28:39.919Z,104.54
2023-12-29T17:31:08.639Z,104.49
2023-12-29T17:33:37.108Z,104.80
2023-12-29T17:36:09.525Z,104.66
2023-12-29T17:38:38.034Z,104.76
2023-12-29T17:41:06.582Z,104.78
2023-12-29T17:43:35.104Z,105.24
2023-12-29T17:46:07.408Z,105.39
2023-12-29T17:48:35.976Z,105.52
2023-12-29T17:51:04.429Z,104.69
2023-12-29T17:53:32.652Z,105.08
2023-12-29T17:56:03.550Z,105.69
2023-12-29T17:58:32.277Z,105.60
2023-12-29T18:01:00.758Z,105.18
2023-12-29T18:03:30.516Z,105.13
2023-12-29T18:06:00.525Z,106.20
2023-12-29T18:08:28.823Z,105.23
2023-12-29T18:10:57.147Z,105.49
2023-12-29T18:13:25.819Z,105.63
2023-12-29T18:15:54.433Z,105.60
2023-12-29T18:18:22.880Z,105.73
2023-12-29T18:20:52.606Z,105.96
2023-12-29T18:23:21.698Z,105.20
2023-12-29T18:25:50.106Z,105.43
2023-12-29T18:28:18.482Z,105.98
2023-12-29T18:30:47.014Z,105.70
2023-12-29T18:33:16.097Z,105.54
2023-12-29T18:35:44.853Z,105.75
2023-12-29T18:38:14.606Z,106.28
2023-12-29T18:40:43.112Z,106.21
2023-12-29T18:43:11.487Z,106.08
2023-12-29T18:45:40.690Z,106.74
2023-12-29T18:48:10.357Z,105.92
2023-12-29T18:50:38.850Z,106.10
2023-12-29T18:53:08.943Z,105.94
2023-12-29T18:55:39.165Z,106.28
2023-12-29T18:58:07.550Z,106.46
2023-12-29T19:00:35.959Z,106.28
2023-12-29T19:03:04.749Z,106.49
2023-12-29T19:05:33.201Z,106.27
2023-12-29T19:08:01.468Z,106.38
2023-12-29T19:10:33.666Z,106.30
2023-12-29T19:13:03.668Z,106.77
2023-12-29T19:15:32.205Z,106.69
2023-12-29T19:18:06.001Z,106.79
2023-12-29T19:20:34.261Z,106.31
2023-12-29T19:23:03.022Z,106.89
2023-12-29T19:25:31.990Z,106.91
2023-12-29T19:28:01.583Z,106.59
2023-12-29T19:30:31.407Z,106.60
2023-12-29T19:33:00.303Z,106.83
2023-12-29T19:35:30.093Z,106.90
2023-12-29T19:37:58.343Z,106.52
2023-12-29T19:40:27.212Z,106.97
2023-12-29T19:42:55.590Z,106.64
2023-12-29T19:45:23.901Z,107.02
2023-12-29T19:47:53.816Z,106.59
2023-12-29T19:50:22.204Z,106.85
2023-12-29T19:52:50.669Z,106.72
2023-12-29T19:55:19.037Z,106.95
2023-12-29T19:57:47.518Z,107.05
2023-12-29T20:00:16.726Z,107.11
2023-12-29T20:02:45.122Z,106.91
2023-12-29T20:05:15.267Z,107.30
2023-12-29T20:07:44.459Z,107.04
2023-12-29T20:10:13.518Z,106.62
2023-12-29T20:12:41.848Z,106.97
2023-12-29T20:15:11.793Z,107.01
2023-12-29T20:17:41.145Z,107.63
2023-12-29T20:20:10.885Z,106.82
2023-12-29T20:22:40.748Z,107.02
2023-12-29T20:25:09.738Z,107.44
2023-12-29T20:27:38.153Z,106.75
2023-12-29T20:30:07.630Z,106.92
2023-12-29T20:32:35.952Z,107.05
2023-12-29T20:35:04.558Z,106.85
2023-12-29T20:37:32.997Z,107.11
2023-12-29T20:40:03.083Z,107.22
2023-12-29T20:42:31.696Z,107.17
2023-12-29T20:45:00.820Z,107.03
2023-12-29T20:47:29.337Z,107.27
2023-12-29T20:49:57.780Z,107.06
2023-12-29T20:52:26.284Z,107.27
2023-12-29T20:54:54.625Z,107.08
2023-12-29T20:57:25.746Z,107.43
2023-12-29T20:59:54.087Z,107.40
2023-12-29T21:02:22.342Z,107.22
2023-12-29T21:04:50.770Z,107.59
2023-12-29T21:07:19.140Z,107.45
2023-12-29T21:09:49.541Z,107.22
2023-12-29T21:12:17.969Z,107.40
2023-12-29T21:14:47.697Z,107.53
2023-12-29T21:17:16.095Z,107.79
2023-12-29T21:19:45.818Z,107.30
2023-12-29T21:22:14.633Z,107.43
2023-12-29T21:24:42.946Z,107.46
2023-12-29T21:27:12.431Z,107.64
2023-12-29T21:29:42.136Z,107.51
2023-12-29T21:32:12.168Z,107.68
2023-12-29T21:34:40.870Z,107.85
2023-12-29T21:37:09.248Z,107.66
2023-12-29T21:39:37.575Z,108.30
2023-12-29T21:42:06.648Z,108.01
2023-12-29T21:44:34.957Z,107.96
2023-12-29T21:47:03.254Z,108.07
2023-12-29T21:49:33.074Z,107.52
2023-12-29T21:52:01.612Z,107.87
2023-12-29T21:54:29.930Z,107.71
2023-12-29T21:57:00.537Z,108.17
2023-12-29T21:59:29.177Z,107.57
2023-12-29T22:01:58.301Z,107.96
2023-12-29T22:04:26.986Z,107.91
2023-12-29T22:06:56.893Z,107.72
2023-12-29T22:09:25.218Z,107.98
2023-12-29T22:11:53.848Z,107.38
2023-12-29T22:14:22.252Z,107.75
2023-12-29T22:16:50.515Z,107.62
2023-12-29T22:19:19.045Z,107.80
2023-12-29T22:21:49.024Z,107.66
2023-12-29T22:24:18.802Z,107.59
2023-12-29T22:26:47.126Z,107.66
2023-12-29T22:29:15.349Z,107.41
2023-12-29T22:31:44.035Z,107.40
2023-12-29T22:34:12.658Z,107.40
2023-12-29T22:36:41.723Z,107.54
2023-12-29T22:39:10.770Z,107.41
2023-12-29T22:41:41.440Z,107.45
2023-12-29T22:44:09.874Z,107.47
2023-12-29T22:46:38.285Z,107.43
2023-12-29T22:49:07.913Z,107.47
2023-12-29T22:51:36.713Z,107.37
2023-12-29T22:54:05.199Z,107.49
2023-12-29T22:56:33.530Z,107.43
2023-12-29T22:59:03.316Z,107.34
2023-12-29T23:01:32.557Z,107.30
2023-12-29T23:04:01.058Z,107.30
2023-12-29T23:06:29.409Z,107.23
2023-12-29T23:08:57.922Z,107.31
2023-12-29T23:11:28.734Z,107.27
2023-12-29T23:13:57.616Z,107.33
2023-12-29T23:16:27.357Z,107.17
2023-12-29T23:18:56.086Z,107.22
2023-12-29T23:21:24.379Z,107.31
2023-12-29T23:23:52.640Z,107.31
2023-12-29T23:26:20.975Z,107.25
2023-12-29T23:28:49.312Z,107.44
2023-12-29T23:31:18.328Z,107.00
2023-12-29T23:33:48.185Z,107.30
2023-12-29T23:36:16.618Z,107.49
2023-12-29T23:38:44.959Z,107.11
2023-12-29T23:41:15.588Z,107.39
2023-12-29T23:43:49.758Z,107.08
2023-12-29T23:46:18.175Z,107.20
2023-12-29T23:48:47.937Z,107.23
2023-12-29T23:51:16.744Z,107.31
2023-12-29T23:53:45.121Z,107.25
2023-12-29T23:56:14.534Z,107.17
2023-12-29T23:58:43.326Z,107.17
